Time;durP1;ratioP1;P1;durP2;ratioP2;P2;SDS_P1;SDS_P2;PMS_P1;PMS_P2;Temp;Humidity;BMP_temperature;BMP_pressure;BME280_temperature;BME280_humidity;BME280_pressure;Samples;Min_cycle;Max_cycle;Signal;HPM_P1;HPM_P2
2022/05/09 00:00:05;;;;;;;6.30;2.40;;;;;;;10.65;33.44;101258.58;117482;1184;23462;-55
2022/05/09 00:02:33;;;;;;;4.70;2.00;;;;;;;10.58;33.54;101262.27;117334;1185;21986;-55
2022/05/09 00:05:02;;;;;;;4.00;2.10;;;;;;;10.49;33.56;101261.20;117412;1185;22482;-55
2022/05/09 00:07:32;;;;;;;4.10;1.90;;;;;;;10.39;33.54;101261.50;117467;1186;22045;-55
2022/05/09 00:10:01;;;;;;;3.10;1.70;;;;;;;10.30;33.47;101261.45;117377;1186;23731;-55
2022/05/09 00:12:31;;;;;;;3.60;1.50;;;;;;;10.24;33.63;101258.81;117343;1185;23542;-55
2022/05/09 00:15:00;;;;;;;4.10;1.60;;;;;;;10.18;33.57;101256.50;117365;1185;22966;-56
2022/05/09 00:17:28;;;;;;;5.00;1.50;;;;;;;10.15;33.79;101256.33;117427;1183;21958;-55
2022/05/09 00:19:57;;;;;;;2.80;1.50;;;;;;;10.09;33.75;101260.34;117400;1185;24158;-49
2022/05/09 00:22:27;;;;;;;4.70;2.00;;;;;;;10.04;33.91;101256.45;117307;1186;23589;-55
2022/05/09 00:24:59;;;;;;;4.40;1.80;;;;;;;10.01;33.87;101254.35;117449;1186;24158;-55
2022/05/09 00:27:28;;;;;;;3.60;1.60;;;;;;;10.02;34.04;101249.27;117412;1185;21852;-55
2022/05/09 00:29:57;;;;;;;4.50;1.90;;;;;;;10.04;33.95;101250.15;117387;1185;23817;-55
2022/05/09 00:32:26;;;;;;;2.30;1.20;;;;;;;10.10;34.21;101251.06;117402;1188;21859;-49
2022/05/09 00:34:55;;;;;;;3.70;1.80;;;;;;;10.14;34.26;101253.52;117527;1184;24135;-55
2022/05/09 00:37:23;;;;;;;6.70;1.70;;;;;;;10.17;34.22;101253.00;117324;1177;23626;-55
2022/05/09 00:39:51;;;;;;;2.60;1.50;;;;;;;10.18;34.20;101253.52;117400;1185;23529;-55
2022/05/09 00:42:20;;;;;;;4.10;1.60;;;;;;;10.18;34.20;101253.70;117372;1185;23465;-55
2022/05/09 00:44:49;;;;;;;4.40;2.00;;;;;;;10.15;34.31;101247.58;117387;1186;22169;-49
2022/05/09 00:47:20;;;;;;;4.40;1.60;;;;;;;10.12;34.36;101248.08;117281;1186;21851;-49
2022/05/09 00:49:52;;;;;;;5.80;2.50;;;;;;;10.11;34.44;101243.86;117353;1185;21851;-55
2022/05/09 00:52:40;;;;;;;2.70;1.50;;;;;;;10.09;34.36;101245.44;117351;1180;23566;-49
2022/05/09 00:55:18;;;;;;;4.90;1.70;;;;;;;10.07;34.43;101242.09;117321;1185;21895;-49
2022/05/09 00:58:02;;;;;;;5.40;1.60;;;;;;;10.05;34.46;101243.14;117326;1189;22918;-49
2022/05/09 01:00:30;;;;;;;4.20;1.60;;;;;;;10.01;34.46;101243.47;117325;1183;22083;-56
2022/05/09 01:03:02;;;;;;;2.60;1.20;;;;;;;10.00;34.68;101242.59;117370;1185;23541;-49
2022/05/09 01:05:30;;;;;;;4.60;1.50;;;;;;;10.00;34.57;101242.05;117339;1186;22976;-55
2022/05/09 01:07:59;;;;;;;3.80;1.40;;;;;;;9.99;34.73;101239.95;117355;1186;22931;-54
2022/05/09 01:10:30;;;;;;;6.50;1.50;;;;;;;9.99;34.77;101241.19;117409;1186;22905;-49
2022/05/09 01:13:03;;;;;;;3.60;1.90;;;;;;;10.00;34.78;101241.02;117410;1186;22919;-55
2022/05/09 01:15:31;;;;;;;3.60;1.70;;;;;;;10.00;34.82;101239.09;117329;1185;23557;-55
2022/05/09 01:18:00;;;;;;;3.80;1.60;;;;;;;10.02;34.88;101234.70;117352;1186;23544;-50
2022/05/09 01:20:29;;;;;;;4.50;1.50;;;;;;;10.02;34.92;101236.46;117509;1184;21880;-55
2022/05/09 01:22:58;;;;;;;4.90;1.90;;;;;;;10.02;34.91;101231.90;117538;1185;23031;-55
2022/05/09 01:25:28;;;;;;;5.30;1.50;;;;;;;10.01;34.94;101234.53;117469;1184;23548;-55
2022/05/09 01:27:56;;;;;;;4.20;1.70;;;;;;;10.00;35.04;101232.59;117403;1185;22950;-49
2022/05/09 01:30:36;;;;;;;4.90;1.60;;;;;;;9.98;35.09;101234.52;117434;1185;21850;-56
2022/05/09 01:33:07;;;;;;;3.00;1.60;;;;;;;9.97;35.21;101235.20;117369;1185;24004;-55
2022/05/09 01:35:53;;;;;;;4.90;2.20;;;;;;;9.95;35.20;101234.16;117276;1186;22654;-49
2022/05/09 01:38:46;;;;;;;5.40;1.70;;;;;;;9.93;35.23;101231.69;117427;1186;23468;-56
2022/05/09 01:41:15;;;;;;;4.70;1.50;;;;;;;9.90;35.22;101229.94;117378;1186;23550;-56
2022/05/09 01:43:45;;;;;;;3.00;1.20;;;;;;;9.87;35.30;101230.27;117418;1185;23541;-49
2022/05/09 01:46:19;;;;;;;5.80;2.30;;;;;;;9.86;35.41;101230.45;117429;1185;21863;-49
2022/05/09 01:51:39;;;;;;;3.80;1.70;;;;;;;9.85;35.52;101228.86;117393;1185;24003;-55
2022/05/09 01:54:07;;;;;;;2.90;1.20;;;;;;;9.85;35.55;101227.27;117371;1185;23554;-49
2022/05/09 01:56:37;;;;;;;4.40;1.90;;;;;;;9.86;35.68;101229.91;117431;1186;24705;-49
2022/05/09 01:59:06;;;;;;;2.70;1.40;;;;;;;9.86;35.54;101230.96;117388;1185;21897;-54
2022/05/09 02:01:36;;;;;;;4.50;1.80;;;;;;;9.84;35.57;101231.48;117492;1185;21855;-55
2022/05/09 02:04:05;;;;;;;4.70;1.80;;;;;;;9.84;35.65;101233.06;117370;1185;24160;-49
2022/05/09 02:06:33;;;;;;;6.60;2.60;;;;;;;9.83;35.75;101228.15;117450;1184;24146;-49
2022/05/09 02:09:02;;;;;;;9.20;1.80;;;;;;;9.81;35.69;101227.62;117390;1185;24207;-55
2022/05/09 02:11:30;;;;;;;9.80;2.00;;;;;;;9.79;35.72;101225.86;117445;1185;24146;-55
2022/05/09 02:13:58;;;;;;;7.00;1.80;;;;;;;9.76;35.80;101222.69;117400;1185;23525;-55
2022/05/09 02:16:26;;;;;;;3.40;1.40;;;;;;;9.71;35.73;101223.54;117402;1186;22511;-55
2022/05/09 02:18:55;;;;;;;4.90;1.80;;;;;;;9.66;35.70;101226.48;117462;1186;22176;-55
2022/05/09 02:21:23;;;;;;;3.60;1.80;;;;;;;9.62;35.71;101226.64;117462;1185;22978;-56
2022/05/09 02:23:51;;;;;;;6.20;1.90;;;;;;;9.59;35.81;101227.52;117436;1185;23563;-55
2022/05/09 02:26:20;;;;;;;6.90;1.70;;;;;;;9.57;35.77;101228.02;117329;1185;22802;-55
2022/05/09 02:28:49;;;;;;;4.10;1.60;;;;;;;9.55;35.98;101229.41;117381;1185;22707;-55
2022/05/09 02:31:20;;;;;;;4.50;1.90;;;;;;;9.53;36.06;101228.34;117372;1185;23544;-55
2022/05/09 02:33:49;;;;;;;4.70;2.20;;;;;;;9.53;36.03;101224.32;117301;1186;23641;-55
2022/05/09 02:36:17;;;;;;;4.20;1.70;;;;;;;9.55;36.06;101225.55;117351;1185;21849;-55
2022/05/09 02:38:45;;;;;;;8.10;2.20;;;;;;;9.56;36.11;101226.78;117540;1185;22620;-55
2022/05/09 02:41:14;;;;;;;7.50;2.20;;;;;;;9.57;36.25;101225.56;117333;1185;23542;-55
2022/05/09 02:43:43;;;;;;;4.60;1.80;;;;;;;9.59;36.32;101221.90;117350;1185;23567;-55
2022/05/09 02:46:11;;;;;;;5.10;1.80;;;;;;;9.61;36.27;101218.75;117334;1185;23537;-55
2022/05/09 02:48:40;;;;;;;3.70;1.70;;;;;;;9.61;36.21;101217.89;117384;1185;22967;-55
2022/05/09 02:51:08;;;;;;;5.40;1.90;;;;;;;9.63;36.35;101219.82;117362;1185;21849;-55
2022/05/09 02:53:37;;;;;;;4.90;1.70;;;;;;;9.64;36.41;101217.38;117323;1186;22901;-55
2022/05/09 02:56:05;;;;;;;6.10;1.90;;;;;;;9.67;36.44;101217.58;117403;1186;23524;-56
2022/05/09 02:58:34;;;;;;;5.80;1.90;;;;;;;9.71;36.37;101214.95;117498;1184;21858;-55
2022/05/09 03:01:03;;;;;;;5.80;1.70;;;;;;;9.75;36.77;101216.37;117547;1184;21886;-55
2022/05/09 03:06:20;;;;;;;3.10;1.50;;;;;;;9.91;36.75;101222.23;117295;1186;23563;-55
2022/05/09 03:08:48;;;;;;;4.70;1.60;;;;;;;9.97;36.84;101228.55;117358;1185;22630;-55
2022/05/09 03:11:17;;;;;;;5.80;1.70;;;;;;;10.03;36.91;101229.63;117329;1185;23544;-55
2022/05/09 03:13:45;;;;;;;3.80;1.80;;;;;;;10.10;36.98;101232.64;117422;1184;21849;-55
2022/05/09 03:16:14;;;;;;;6.50;2.00;;;;;;;10.18;37.14;101234.77;117495;1184;23534;-55
2022/05/09 03:18:42;;;;;;;9.90;2.10;;;;;;;10.24;36.84;101236.70;117522;1185;23563;-55
2022/05/09 03:21:11;;;;;;;3.70;2.00;;;;;;;10.30;37.05;101240.23;118544;1184;24160;-50
2022/05/09 03:23:39;;;;;;;5.50;1.80;;;;;;;10.35;37.06;101242.17;117456;1186;22911;-51
2022/05/09 03:26:07;;;;;;;4.70;1.40;;;;;;;10.38;37.20;101243.25;117566;1184;22911;-55
2022/05/09 03:28:35;;;;;;;4.10;1.60;;;;;;;10.44;37.24;101245.21;117552;1184;23459;-54
2022/05/09 03:31:04;;;;;;;4.20;1.60;;;;;;;10.50;37.24;101250.30;117380;1186;24173;-49
2022/05/09 03:33:32;;;;;;;5.10;1.60;;;;;;;10.57;37.29;101249.80;117582;1186;22884;-49
2022/05/09 03:36:01;;;;;;;6.50;1.70;;;;;;;10.64;37.25;101249.63;117547;1185;23538;-54
2022/05/09 03:38:30;;;;;;;5.80;2.30;;;;;;;10.72;37.36;101252.80;117351;1185;21847;-54
2022/05/09 03:40:59;;;;;;;4.40;1.60;;;;;;;10.81;37.51;101255.09;117384;1185;21853;-49
2022/05/09 03:43:28;;;;;;;4.30;2.40;;;;;;;10.90;37.35;101252.29;117373;1185;22435;-48
2022/05/09 03:45:56;;;;;;;8.00;1.80;;;;;;;10.98;37.44;101251.60;117438;1185;21849;-49
2022/05/09 03:48:24;;;;;;;6.70;1.90;;;;;;;11.08;37.51;101250.53;117357;1186;23538;-49
2022/05/09 03:50:53;;;;;;;6.50;1.50;;;;;;;11.19;37.58;101249.48;117539;1187;21857;-54
2022/05/09 03:53:21;;;;;;;7.80;1.80;;;;;;;11.29;37.71;101246.64;117571;1185;21856;-50
2022/05/09 03:55:50;;;;;;;5.80;1.90;;;;;;;11.41;37.72;101250.67;117502;1185;23538;-54
2022/05/09 03:58:19;;;;;;;3.70;1.50;;;;;;;11.52;37.86;101252.05;117370;1186;21846;-50
2022/05/09 04:00:47;;;;;;;4.60;1.60;;;;;;;11.64;37.89;101252.91;117524;1184;23535;-50
2022/05/09 04:03:15;;;;;;;3.50;1.60;;;;;;;11.76;37.86;101253.04;117569;1184;23538;-49
2022/05/09 04:05:44;;;;;;;12.20;2.00;;;;;;;11.89;37.97;101254.05;117387;1186;21858;-49
2022/05/09 04:08:17;;;;;;;6.10;1.70;;;;;;;12.02;37.92;101254.39;117401;1185;21875;-50
2022/05/09 04:10:45;;;;;;;3.80;1.60;;;;;;;12.16;37.99;101253.27;117382;1185;21883;-50
2022/05/09 04:13:14;;;;;;;4.40;1.70;;;;;;;12.30;38.11;101247.23;117413;1185;23638;-50
2022/05/09 04:18:36;;;;;;;;;;;;;;;12.60;38.16;101243.51;117521;1185;24164;-50
2022/05/09 04:21:05;;;;;;;9.80;4.50;;;;;;;12.75;38.21;101242.16;117490;1186;21938;-54
2022/05/09 04:23:34;;;;;;;31.20;18.80;;;;;;;12.92;38.32;101241.34;117404;1185;23442;-55
2022/05/09 04:26:02;;;;;;;19.90;11.90;;;;;;;13.10;38.30;101243.28;117365;1185;23550;-55
2022/05/09 04:28:31;;;;;;;12.60;6.10;;;;;;;13.30;38.20;101242.23;117570;1185;23462;-55
2022/05/09 04:30:59;;;;;;;10.90;3.70;;;;;;;13.47;38.30;101247.55;117527;1186;23541;-50
2022/05/09 04:33:29;;;;;;;8.90;3.20;;;;;;;13.65;38.28;101246.14;117485;1185;21874;-55
2022/05/09 04:35:58;;;;;;;6.70;2.50;;;;;;;13.81;38.36;101245.77;117459;1185;24152;-57
2022/05/09 04:38:26;;;;;;;6.10;1.80;;;;;;;13.99;38.40;101242.91;117459;1185;24162;-51
2022/05/09 04:40:58;;;;;;;8.90;2.20;;;;;;;14.18;38.39;101242.13;117580;1185;23458;-56
2022/05/09 04:43:28;;;;;;;6.20;2.50;;;;;;;14.37;38.34;101243.45;117432;1185;21839;-52
2022/05/09 04:46:00;;;;;;;7.00;2.00;;;;;;;14.54;38.41;101236.14;117371;1185;22919;-56
2022/05/09 04:48:29;;;;;;;5.40;2.20;;;;;;;14.73;38.43;101236.40;117379;1185;22832;-52
2022/05/09 04:50:58;;;;;;;4.30;1.40;;;;;;;14.90;38.43;101234.02;117455;1185;22649;-52
2022/05/09 04:53:26;;;;;;;3.40;1.30;;;;;;;15.06;38.45;101230.92;117348;1185;22526;-52
2022/05/09 04:55:56;;;;;;;16.70;2.30;;;;;;;15.22;38.27;101229.95;117514;1181;22147;-52
2022/05/09 04:58:25;;;;;;;4.60;2.10;;;;;;;15.39;38.46;101227.33;117466;1186;23437;-55
2022/05/09 05:00:53;;;;;;;56.30;39.60;;;;;;;15.59;38.51;101222.53;117357;1186;23031;-52
2022/05/09 05:03:23;;;;;;;39.40;30.30;;;;;;;15.79;38.47;101227.80;117420;1186;23469;-55
2022/05/09 05:05:52;;;;;;;44.40;35.30;;;;;;;16.00;38.51;101229.17;117548;1184;23552;-51
2022/05/09 05:08:20;;;;;;;8.80;5.10;;;;;;;16.17;38.28;101227.02;117566;1185;23438;-56
2022/05/09 05:10:55;;;;;;;4.20;2.40;;;;;;;16.34;38.17;101228.25;117282;1184;23659;-56
2022/05/09 05:13:24;;;;;;;3.90;1.80;;;;;;;16.49;38.02;101225.78;117454;1185;23813;-56
2022/05/09 05:15:53;;;;;;;4.80;1.50;;;;;;;16.62;38.07;101224.22;117535;1184;23646;-56
2022/05/09 05:18:26;;;;;;;5.10;1.50;;;;;;;16.77;38.01;101226.52;117341;1185;23544;-52
2022/05/09 05:20:54;;;;;;;3.00;1.60;;;;;;;16.91;37.83;101222.98;117369;1185;21843;-51
2022/05/09 05:23:23;;;;;;;2.80;1.10;;;;;;;17.04;37.81;101227.13;117447;1186;23544;-57
2022/05/09 05:25:51;;;;;;;3.90;1.20;;;;;;;17.18;37.84;101230.65;117184;1186;21853;-56
2022/05/09 05:28:20;;;;;;;5.70;1.50;;;;;;;17.31;37.73;101227.83;117352;1185;22807;-56
2022/05/09 05:30:49;;;;;;;3.70;1.30;;;;;;;17.44;37.56;101227.49;117354;1185;22802;-56
2022/05/09 05:33:17;;;;;;;4.00;1.30;;;;;;;17.58;37.48;101222.33;117409;1185;23529;-56
2022/05/09 05:35:46;;;;;;;4.30;1.20;;;;;;;17.70;37.35;101223.56;117495;1184;23539;-56
2022/05/09 05:38:14;;;;;;;3.20;1.30;;;;;;;17.81;37.30;101226.27;117352;1185;23547;-56
2022/05/09 05:40:42;;;;;;;3.00;1.60;;;;;;;17.93;37.12;101230.17;117401;1185;24159;-53
2022/05/09 05:43:15;;;;;;;4.70;1.70;;;;;;;18.09;37.12;101230.10;117503;1185;24254;-57
2022/05/09 05:45:46;;;;;;;6.50;1.30;;;;;;;18.24;37.04;101226.81;117492;1184;23541;-54
2022/05/09 05:48:15;;;;;;;3.90;1.10;;;;;;;18.41;37.07;101224.32;117389;1185;22989;-56
2022/05/09 05:50:44;;;;;;;5.70;1.20;;;;;;;18.56;37.01;101221.89;117363;1185;24145;-56
2022/05/09 05:53:12;;;;;;;4.70;0.90;;;;;;;18.73;36.95;101225.08;117536;1186;21851;-56
2022/05/09 05:55:41;;;;;;;3.60;1.20;;;;;;;18.87;36.83;101221.59;117408;1185;23557;-55
2022/05/09 05:58:09;;;;;;;4.60;0.90;;;;;;;19.01;36.69;101222.77;117366;1185;23538;-57
2022/05/09 06:00:37;;;;;;;4.30;1.60;;;;;;;19.10;36.51;101221.74;117358;1185;23905;-56
2022/05/09 06:03:07;;;;;;;1.80;0.90;;;;;;;19.21;36.41;101220.84;117300;1186;24145;-57
2022/05/09 06:05:36;;;;;;;4.40;1.10;;;;;;;19.34;36.47;101224.11;117336;1180;23619;-56
2022/05/09 06:08:06;;;;;;;2.20;0.70;;;;;;;19.45;36.33;101222.13;117380;1185;23538;-56
2022/05/09 06:10:37;;;;;;;3.00;1.20;;;;;;;19.54;36.13;101224.29;117385;1181;23626;-56
2022/05/09 06:13:10;;;;;;;3.80;1.30;;;;;;;19.65;36.10;101221.06;117332;1185;24159;-54
2022/05/09 06:15:42;;;;;;;5.40;1.10;;;;;;;19.78;35.96;101220.05;117304;1186;24140;-53
2022/05/09 06:18:14;;;;;;;4.60;1.60;;;;;;;19.88;35.91;101222.02;117375;1185;21854;-56
2022/05/09 06:20:43;;;;;;;3.10;1.40;;;;;;;20.02;35.87;101223.63;117371;1183;22916;-57
2022/05/09 06:23:12;;;;;;;3.00;1.40;;;;;;;20.19;35.79;101220.45;117409;1186;22900;-54
2022/05/09 06:25:43;;;;;;;6.90;1.40;;;;;;;20.34;35.70;101220.23;117355;1184;21858;-55
2022/05/09 06:28:12;;;;;;;3.30;0.80;;;;;;;20.43;35.46;101221.83;117410;1185;23541;-53
2022/05/09 06:30:41;;;;;;;2.90;1.10;;;;;;;20.46;35.39;101220.64;117411;1185;23544;-56
2022/05/09 06:33:10;;;;;;;6.80;1.50;;;;;;;20.54;35.34;101224.08;117353;1185;22618;-55
2022/05/09 06:35:45;;;;;;;3.20;1.20;;;;;;;20.64;35.33;101223.30;117302;1185;23564;-56
2022/05/09 06:38:15;;;;;;;5.30;1.30;;;;;;;20.80;35.18;101223.54;117301;1185;22917;-57
2022/05/09 06:40:43;;;;;;;2.60;1.40;;;;;;;20.97;35.11;101223.06;117355;1182;21867;-56
2022/05/09 06:43:11;;;;;;;2.70;1.10;;;;;;;21.08;34.91;101224.39;117389;1185;21865;-56
2022/05/09 06:45:40;;;;;;;2.70;0.90;;;;;;;21.16;34.80;101225.65;117327;1186;21896;-55
2022/05/09 06:48:09;;;;;;;2.00;0.80;;;;;;;21.21;34.55;101227.20;117364;1185;21849;-56
2022/05/09 06:50:38;;;;;;;4.60;1.10;;;;;;;21.30;34.52;101228.42;117363;1185;21856;-55
2022/05/09 06:53:06;;;;;;;3.10;1.10;;;;;;;21.45;34.40;101229.38;117378;1186;21836;-56
2022/05/09 06:55:46;;;;;;;4.00;1.40;;;;;;;21.51;34.22;101231.61;117353;1185;23541;-54
2022/05/09 06:58:21;;;;;;;6.20;1.20;;;;;;;21.52;34.24;101230.11;117404;1182;21840;-55
2022/05/09 07:00:50;;;;;;;2.40;1.10;;;;;;;21.62;34.18;101223.98;117307;1185;21856;-57
2022/05/09 07:03:19;;;;;;;3.70;1.30;;;;;;;21.82;34.24;101221.85;117359;1185;23657;-55
2022/05/09 07:05:51;;;;;;;4.10;1.70;;;;;;;21.92;33.94;101226.25;117372;1185;23539;-54
2022/05/09 07:08:22;;;;;;;3.90;1.60;;;;;;;21.93;33.76;101224.89;117382;1185;21850;-57
2022/05/09 07:10:58;;;;;;;2.30;1.20;;;;;;;22.01;33.77;101226.33;117285;1185;23827;-56
2022/05/09 07:13:41;;;;;;;3.50;1.20;;;;;;;22.17;33.86;101222.36;117395;1185;23536;-57
2022/05/09 07:16:11;;;;;;;5.00;1.10;;;;;;;22.27;33.71;101220.30;117390;1185;23627;-54
2022/05/09 07:18:39;;;;;;;2.40;0.80;;;;;;;22.46;33.78;101219.05;117347;1186;23592;-57
2022/05/09 07:21:08;;;;;;;3.10;1.10;;;;;;;22.77;33.72;101217.02;117339;1185;23702;-57
2022/05/09 07:23:37;;;;;;;3.40;1.10;;;;;;;22.99;33.58;101217.67;117434;1185;23541;-56
2022/05/09 07:26:05;;;;;;;2.50;1.20;;;;;;;23.11;33.38;101212.23;117371;1185;21902;-54
2022/05/09 07:28:34;;;;;;;6.00;1.50;;;;;;;23.33;33.62;101207.19;117236;1181;21845;-54
2022/05/09 07:31:02;;;;;;;2.00;1.00;;;;;;;23.61;33.45;101204.79;117340;1185;22823;-57
2022/05/09 07:33:30;;;;;;;4.00;1.40;;;;;;;23.78;33.08;101207.13;117295;1185;23566;-54
2022/05/09 07:35:58;;;;;;;3.20;1.10;;;;;;;23.82;32.92;101200.61;117327;1185;23528;-54
2022/05/09 07:38:27;;;;;;;4.10;1.40;;;;;;;23.95;32.91;101203.14;117360;1184;23537;-56
2022/05/09 07:40:55;;;;;;;4.10;1.60;;;;;;;24.14;32.86;101198.89;117528;1186;23560;-56
2022/05/09 07:43:25;;;;;;;3.90;1.00;;;;;;;24.25;32.76;101196.84;117537;1184;22798;-56
2022/05/09 07:45:54;;;;;;;2.40;1.20;;;;;;;24.41;32.44;101198.95;117354;1185;22745;-57
2022/05/09 07:48:24;;;;;;;2.40;1.10;;;;;;;24.58;32.43;101199.23;117403;1185;22904;-56
2022/05/09 07:50:53;;;;;;;5.10;1.20;;;;;;;24.71;32.32;101201.02;117373;1185;21860;-55
2022/05/09 07:53:26;;;;;;;3.80;1.30;;;;;;;24.74;31.95;101197.61;117415;1186;21838;-56
2022/05/09 07:55:54;;;;;;;2.10;1.20;;;;;;;24.79;31.89;101196.94;117364;1184;22082;-57
2022/05/09 07:58:23;;;;;;;1.40;0.70;;;;;;;24.90;31.93;101194.15;117503;1184;23547;-56
2022/05/09 08:00:52;;;;;;;3.00;1.10;;;;;;;25.10;31.95;101192.61;117609;1185;21851;-55
2022/05/09 08:03:21;;;;;;;3.00;1.10;;;;;;;25.20;31.72;101191.66;117392;1185;21887;-54
2022/05/09 08:05:50;;;;;;;5.80;1.30;;;;;;;25.17;31.46;101192.17;117347;1185;21856;-56
2022/05/09 08:08:18;;;;;;;4.20;1.40;;;;;;;25.20;31.48;101187.18;117462;1186;22616;-55
2022/05/09 08:10:46;;;;;;;2.30;1.20;;;;;;;25.33;31.50;101189.98;117525;1186;21855;-55
2022/05/09 08:13:18;;;;;;;7.80;1.50;;;;;;;25.57;31.54;101188.35;117523;1185;23541;-55
2022/05/09 08:15:46;;;;;;;1.80;0.90;;;;;;;25.76;31.40;101187.52;117443;1185;21836;-55
2022/05/09 08:18:14;;;;;;;22.90;12.60;;;;;;;25.82;31.19;101187.48;117604;1184;21840;-56
2022/05/09 08:20:46;;;;;;;;;;;;;;;25.88;31.10;101184.41;117345;1186;21823;-55
2022/05/09 08:23:16;;;;;;;4.20;1.90;;;;;;;26.01;31.01;101184.83;117361;1185;22918;-55
2022/05/09 08:25:46;;;;;;;7.30;1.40;;;;;;;26.06;30.80;101181.98;117325;1185;21917;-55
2022/05/09 08:28:15;;;;;;;2.70;1.50;;;;;;;26.15;30.71;101178.16;117338;1185;23436;-55
2022/05/09 08:30:44;;;;;;;2.80;1.20;;;;;;;26.31;30.73;101182.19;117375;1185;21851;-55
2022/05/09 08:33:15;;;;;;;5.50;1.70;;;;;;;26.45;30.62;101179.51;117379;1185;22979;-55
2022/05/09 08:35:44;;;;;;;7.10;1.70;;;;;;;26.58;30.44;101177.75;117419;1185;21850;-55
2022/05/09 08:38:13;;;;;;;6.00;1.70;;;;;;;26.64;30.42;101177.13;117448;1185;21974;-55
2022/05/09 08:40:58;;;;;;;3.60;1.60;;;;;;;26.86;30.18;101171.19;117348;1185;21853;-56
2022/05/09 08:43:32;;;;;;;2.30;1.30;;;;;;;27.13;30.09;101165.17;117380;1181;22958;-55
2022/05/09 08:46:36;;;;;;;3.80;1.40;;;;;;;27.29;29.89;101160.80;117154;1187;23558;-55
2022/05/09 08:49:46;;;;;;;3.20;1.60;;;;;;;27.35;29.59;101156.98;117348;1186;21847;-56
2022/05/09 08:52:22;;;;;;;3.50;2.10;;;;;;;27.41;29.28;101154.54;117397;1189;22803;-56
2022/05/09 08:54:50;;;;;;;3.30;2.00;;;;;;;27.45;29.23;101151.38;117399;1185;22614;-55
2022/05/09 08:57:28;;;;;;;3.80;2.00;;;;;;;27.56;29.30;101152.65;117147;1188;23541;-56
2022/05/09 09:00:00;;;;;;;4.20;2.00;;;;;;;27.63;29.11;101152.32;117270;1185;22812;-56
2022/05/09 09:02:39;;;;;;;3.50;2.30;;;;;;;27.75;28.87;101150.54;117296;1186;21846;-56
2022/05/09 09:05:07;;;;;;;4.20;1.90;;;;;;;27.87;28.63;101154.17;117274;1186;21885;-56
2022/05/09 09:07:40;;;;;;;4.50;1.60;;;;;;;27.93;28.51;101147.83;117196;1185;21856;-56
2022/05/09 09:10:12;;;;;;;3.70;2.00;;;;;;;28.01;28.71;101146.32;117409;1185;21846;-56
2022/05/09 09:13:06;;;;;;;5.20;1.90;;;;;;;28.09;28.48;101148.27;117462;1184;23717;-56
2022/05/09 09:15:46;;;;;;;3.40;1.80;;;;;;;28.19;28.24;101145.55;117267;1185;21905;-55
2022/05/09 09:18:25;;;;;;;4.60;1.90;;;;;;;28.29;28.23;101145.22;117360;1185;21993;-55
2022/05/09 09:21:14;;;;;;;5.70;1.90;;;;;;;28.44;28.21;101144.40;117921;1185;24150;-55
2022/05/09 09:24:30;;;;;;;5.20;1.90;;;;;;;28.60;28.01;101139.80;117398;1185;24152;-55
2022/05/09 09:27:14;;;;;;;4.40;2.10;;;;;;;28.58;27.53;101136.86;116821;1188;23727;-55
2022/05/09 09:29:48;;;;;;;3.70;1.90;;;;;;;28.55;27.44;101136.54;117328;1185;22979;-55
2022/05/09 09:32:22;;;;;;;2.90;1.90;;;;;;;28.63;27.58;101139.23;117346;1185;21850;-55
2022/05/09 09:35:06;;;;;;;3.60;2.40;;;;;;;28.75;27.54;101136.98;117415;1185;21840;-55
2022/05/09 09:37:52;;;;;;;7.50;3.00;;;;;;;28.84;27.54;101135.82;117327;1187;21840;-55
2022/05/09 09:40:20;;;;;;;9.50;5.00;;;;;;;28.96;27.43;101135.05;117356;1185;21888;-55
2022/05/09 09:42:53;;;;;;;8.20;4.70;;;;;;;29.25;27.10;101133.48;117460;1185;21850;-55
2022/05/09 09:45:28;;;;;;;5.70;3.50;;;;;;;29.44;27.12;101132.73;117377;1184;21849;-55
2022/05/09 09:48:20;;;;;;;12.40;5.90;;;;;;;29.52;27.05;101134.07;117451;1185;21855;-55
2022/05/09 09:50:55;;;;;;;5.40;3.80;;;;;;;29.51;27.11;101132.52;117488;1186;22991;-58
2022/05/09 09:53:34;;;;;;;5.20;2.60;;;;;;;29.59;27.06;101133.71;117445;1186;21850;-56
2022/05/09 09:56:22;;;;;;;5.60;2.50;;;;;;;29.72;27.22;101136.27;117387;1184;21984;-55
2022/05/09 09:58:57;;;;;;;5.90;2.50;;;;;;;30.25;27.44;101129.41;117617;1185;22992;-54
2022/05/09 10:01:30;;;;;;;6.40;2.60;;;;;;;30.93;27.40;101123.89;117403;1185;23537;-55
2022/05/09 10:04:03;;;;;;;6.80;2.40;;;;;;;31.26;27.18;101126.98;117448;1186;22915;-56
2022/05/09 10:06:34;;;;;;;6.60;2.30;;;;;;;31.34;26.72;101127.36;117450;1184;21839;-55
2022/05/09 10:09:08;;;;;;;5.80;2.50;;;;;;;31.19;26.23;101121.42;117382;1185;22926;-54
2022/05/09 10:11:37;;;;;;;5.80;2.80;;;;;;;31.06;26.01;101120.02;117363;1185;23356;-54
2022/05/09 10:14:05;;;;;;;5.60;3.30;;;;;;;30.93;26.11;101123.17;117209;1186;22902;-55
2022/05/09 10:16:45;;;;;;;4.70;2.90;;;;;;;30.85;25.86;101119.09;117677;1185;22989;-56
2022/05/09 10:19:29;;;;;;;5.80;3.40;;;;;;;30.80;25.89;101112.84;117298;1185;23638;-56
2022/05/09 10:24:48;;;;;;;6.80;2.80;;;;;;;31.12;26.13;101110.08;117434;1186;23247;-56
2022/05/09 10:27:23;;;;;;;4.90;3.20;;;;;;;31.63;26.27;101101.04;117294;1186;23541;-56
2022/05/09 10:29:56;;;;;;;4.20;3.00;;;;;;;32.07;26.27;101098.57;117317;1186;22613;-56
2022/05/09 10:32:52;;;;;;;8.50;3.70;;;;;;;32.56;26.27;101096.75;117310;1185;22915;-56
2022/05/09 10:35:42;;;;;;;6.00;3.20;;;;;;;32.99;25.99;101096.73;117263;1188;21938;-56
2022/05/09 10:38:14;;;;;;;5.20;3.70;;;;;;;33.29;25.91;101095.79;117322;1185;23538;-57
2022/05/09 10:40:54;;;;;;;7.40;4.10;;;;;;;33.44;25.57;101092.98;117348;1185;23467;-57
2022/05/09 10:43:28;;;;;;;5.60;3.80;;;;;;;33.51;25.44;101092.02;117451;1181;23533;-57
2022/05/09 10:45:57;;;;;;;10.50;4.20;;;;;;;33.47;24.88;101089.88;117333;1186;22908;-57
2022/05/09 10:48:36;;;;;;;5.60;3.50;;;;;;;33.11;24.95;101094.98;117335;1186;22646;-56
2022/05/09 10:51:14;;;;;;;6.00;3.60;;;;;;;32.99;24.98;101093.05;117291;1184;22905;-56
2022/05/09 10:54:06;;;;;;;6.60;3.50;;;;;;;32.94;24.88;101089.13;117461;1184;23606;-56
2022/05/09 10:56:41;;;;;;;6.20;3.60;;;;;;;32.79;24.78;101092.59;117298;1184;21853;-57
2022/05/09 10:59:32;;;;;;;9.90;4.50;;;;;;;32.34;24.46;101088.46;117341;1186;23545;-55
2022/05/09 11:02:07;;;;;;;8.30;3.70;;;;;;;31.81;24.44;101086.95;117579;1184;22710;-55
2022/05/09 11:04:35;;;;;;;6.70;4.70;;;;;;;31.59;24.51;101083.58;117378;1185;22705;-55
2022/05/09 11:07:25;;;;;;;9.80;4.50;;;;;;;31.79;24.61;101080.95;117291;1186;21840;-56
2022/05/09 11:10:08;;;;;;;4.70;3.60;;;;;;;31.99;24.35;101076.95;117467;1186;23560;-55
2022/05/09 11:12:55;;;;;;;5.50;4.00;;;;;;;32.07;24.19;101074.02;117425;1185;22026;-56
2022/05/09 11:15:42;;;;;;;5.20;3.60;;;;;;;32.13;24.45;101073.14;117290;1186;22803;-57
2022/05/09 11:18:43;;;;;;;9.90;3.50;;;;;;;32.00;24.23;101071.20;117350;1186;23538;-57
2022/05/09 11:21:29;;;;;;;7.60;3.70;;;;;;;31.95;24.23;101063.20;117520;1177;23603;-56
2022/05/09 11:24:05;;;;;;;9.00;4.00;;;;;;;32.06;24.32;101060.12;117378;1185;23420;-56
2022/05/09 11:26:50;;;;;;;10.10;3.30;;;;;;;32.38;24.53;101054.64;117284;1185;24259;-56
2022/05/09 11:29:35;;;;;;;9.30;3.70;;;;;;;32.94;24.53;101053.75;117601;1186;21901;-56
2022/05/09 11:32:23;;;;;;;6.50;3.70;;;;;;;32.93;24.03;101053.30;117356;1185;22806;-56
2022/05/09 11:35:04;;;;;;;6.10;3.40;;;;;;;32.66;23.69;101047.17;117386;1185;24151;-56
2022/05/09 11:37:33;;;;;;;8.80;3.70;;;;;;;32.53;23.92;101042.89;117464;1185;21887;-56
2022/05/09 11:40:10;;;;;;;7.40;3.50;;;;;;;32.66;23.93;101041.48;117405;1185;21875;-56
2022/05/09 11:43:29;;;;;;;4.50;3.00;;;;;;;32.94;24.09;101038.85;117316;1185;21857;-56
2022/05/09 11:46:00;;;;;;;5.40;3.50;;;;;;;33.44;24.11;101035.95;117323;1185;21939;-57
2022/05/09 11:48:35;;;;;;;9.20;3.90;;;;;;;33.74;23.99;101030.58;117323;1186;23538;-56
2022/05/09 11:51:13;;;;;;;5.20;3.90;;;;;;;33.88;23.79;101027.77;117331;1186;23545;-56
2022/05/09 11:53:44;;;;;;;7.30;3.70;;;;;;;33.97;23.77;101021.21;117319;1186;23483;-57